Terminal Aerodrome Forecast
Issued by NWS

Current Version | Previous Version | Text Only | Print | Product List | Glossary On
Versions: 1 2 3 4 5 6 7 8 9 10 11 12 13 14 15 16 17 18 19 20 21 22 23
000
FTUS42 KRAH 181805 AAA
TAFRWI
TAF AMD
KRWI 181805Z 1818/1918 23009KT P6SM VCSH SCT040 BKN250
     FM182300 23008KT P6SM BKN040
      TEMPO 1900/1903 25015G25KT 2SM TSRA BKN025CB
     FM190700 26005KT P6SM BKN060 BKN250=

USA.gov is the U.S. government's official web portal to all federal, state and local government web resources and services.